Thorp, Wisconsin
Current Conditions -  °F | °C
As of 4:35 AM on Thursday 27 Nov 2014 (Local Time) from KMDZ Reporting Station
Haze Haze  
Wind Chill: -6°   Ceiling: 4500
Heat Index:   Visibility: 5mi
Dew Point:   Wind: 13mph
Humidity: 81%   Direction: 330°NNW
Pressure: 30.28"   Gusts: 17mph
Location:  44.96°N, 90.8°W
Report Text: KMDZ 271035Z AUTO 33011G15KT 5SM HZ BKN045 OVC050 M13/M15 A3028 RMK AO2 T11271153
Loading
Personal Weather Stations






























Interactive Weather Map New forecast layout! Learn more

10-Day Weather Forecast

Advertisements
Track Severe Weather on mobile